Time;durP1;ratioP1;P1;durP2;ratioP2;P2;SDS_P1;SDS_P2;PMS_P1;PMS_P2;Temp;Humidity;BMP_temperature;BMP_pressure;BME280_temperature;BME280_humidity;BME280_pressure;Samples;Min_cycle;Max_cycle;Signal;HPM_P1;HPM_P2
2021/12/09 00:00:28;;;;;;;0.17;0.17;;;;;;;;;;5047275;28;20203;-74
2021/12/09 00:02:56;;;;;;;2.70;0.77;;;;;;;;;;5048096;28;20576;-74
2021/12/09 00:05:24;;;;;;;0.53;0.53;;;;;;;;;;5048249;28;20198;-74
2021/12/09 00:07:53;;;;;;;0.20;0.20;;;;;;;;;;5051104;28;20778;-74
2021/12/09 00:10:21;;;;;;;0.60;0.10;;;;;;;;;;5054030;28;20613;-73
2021/12/09 00:12:49;;;;;;;0.10;0.10;;;;;;;;;;5054190;28;20226;-74
2021/12/09 00:15:16;;;;;;;0.10;0.10;;;;;;;;;;5047765;28;20199;-74
2021/12/09 00:17:44;;;;;;;0.00;0.00;;;;;;;;;;5045487;28;20576;-75
2021/12/09 00:20:13;;;;;;;0.00;0.00;;;;;;;;;;5048185;28;20210;-73
2021/12/09 00:22:40;;;;;;;0.10;0.10;;;;;;;;;;5048611;28;20864;-74
2021/12/09 00:25:08;;;;;;;2.20;2.10;;;;;;;;;;5047520;28;20317;-75
2021/12/09 00:27:37;;;;;;;1.30;0.73;;;;;;;;;;5043783;28;20246;-74
2021/12/09 00:30:06;;;;;;;1.07;0.97;;;;;;;;;;5047911;28;20207;-74
2021/12/09 00:32:33;;;;;;;0.00;0.00;;;;;;;;;;5050039;28;20286;-74
2021/12/09 00:35:03;;;;;;;0.00;0.00;;;;;;;;;;5045668;28;20212;-75
2021/12/09 00:37:36;;;;;;;12.37;1.73;;;;;;;;;;5051190;28;20208;-74
2021/12/09 00:40:05;;;;;;;0.47;0.43;;;;;;;;;;5049238;28;20203;-75
2021/12/09 00:42:33;;;;;;;0.00;0.00;;;;;;;;;;5047964;28;20203;-74
2021/12/09 00:45:02;;;;;;;3.03;1.10;;;;;;;;;;5047819;28;20216;-75
2021/12/09 00:47:30;;;;;;;0.10;0.10;;;;;;;;;;5045400;28;20234;-75
2021/12/09 00:49:58;;;;;;;1.17;0.77;;;;;;;;;;5046788;28;20216;-76
2021/12/09 00:52:26;;;;;;;0.40;0.40;;;;;;;;;;5047782;28;20195;-73
2021/12/09 00:54:54;;;;;;;6.10;0.77;;;;;;;;;;5049628;28;20226;-73
2021/12/09 00:57:22;;;;;;;1.60;1.03;;;;;;;;;;5049028;28;20207;-73
2021/12/09 00:59:49;;;;;;;0.00;0.00;;;;;;;;;;5049007;28;20203;-74
2021/12/09 01:02:18;;;;;;;1.03;0.83;;;;;;;;;;5048481;28;20228;-74
2021/12/09 01:04:47;;;;;;;0.10;0.10;;;;;;;;;;5042834;28;20665;-73
2021/12/09 01:07:14;;;;;;;0.87;0.87;;;;;;;;;;5048141;28;20222;-76
2021/12/09 01:09:42;;;;;;;0.20;0.20;;;;;;;;;;5047929;28;20199;-73
2021/12/09 01:12:10;;;;;;;0.93;0.57;;;;;;;;;;5044756;28;20199;-77
2021/12/09 01:14:39;;;;;;;0.00;0.00;;;;;;;;;;5046806;28;20207;-75
2021/12/09 01:17:06;;;;;;;0.00;0.00;;;;;;;;;;5046878;28;20199;-74
2021/12/09 01:19:35;;;;;;;0.27;0.17;;;;;;;;;;5046225;28;20206;-74
2021/12/09 01:22:03;;;;;;;0.57;0.30;;;;;;;;;;5041253;28;20303;-74
2021/12/09 01:24:30;;;;;;;0.27;0.23;;;;;;;;;;5046868;28;20549;-74
2021/12/09 01:26:59;;;;;;;0.00;0.00;;;;;;;;;;5046562;28;20227;-74
2021/12/09 01:29:33;;;;;;;0.00;0.00;;;;;;;;;;5052394;28;20249;-75
2021/12/09 01:32:04;;;;;;;0.00;0.00;;;;;;;;;;5045801;28;21956;-76
2021/12/09 01:34:32;;;;;;;0.07;0.07;;;;;;;;;;5046993;28;20208;-74
2021/12/09 01:37:01;;;;;;;0.00;0.00;;;;;;;;;;5050930;28;20613;-76
2021/12/09 01:39:30;;;;;;;0.53;0.37;;;;;;;;;;5053400;28;20195;-75
2021/12/09 01:41:59;;;;;;;1.77;0.87;;;;;;;;;;5049007;28;20211;-74
2021/12/09 01:44:26;;;;;;;0.00;0.00;;;;;;;;;;5052812;28;20210;-75
2021/12/09 01:46:56;;;;;;;0.40;0.20;;;;;;;;;;5052098;28;20590;-75
2021/12/09 01:49:24;;;;;;;0.37;0.37;;;;;;;;;;5050243;28;20195;-75
2021/12/09 01:51:51;;;;;;;0.00;0.00;;;;;;;;;;5052261;28;20552;-75
2021/12/09 01:54:23;;;;;;;1.17;1.07;;;;;;;;;;5050270;28;20246;-73
2021/12/09 01:56:50;;;;;;;0.00;0.00;;;;;;;;;;5051109;28;20294;-75
2021/12/09 01:59:18;;;;;;;1.33;0.60;;;;;;;;;;5049317;28;20202;-76
2021/12/09 02:01:45;;;;;;;0.13;0.13;;;;;;;;;;5050169;28;20199;-76
2021/12/09 02:04:15;;;;;;;0.67;0.20;;;;;;;;;;5052275;28;20593;-75
2021/12/09 02:06:43;;;;;;;0.20;0.20;;;;;;;;;;5048993;28;20241;-76
2021/12/09 02:09:11;;;;;;;0.20;0.20;;;;;;;;;;5051038;28;20211;-75
2021/12/09 02:11:40;;;;;;;0.37;0.37;;;;;;;;;;5052362;28;20294;-76
2021/12/09 02:14:08;;;;;;;0.40;0.20;;;;;;;;;;5051258;28;20203;-75
2021/12/09 02:16:36;;;;;;;0.70;0.70;;;;;;;;;;5055827;28;20219;-76
2021/12/09 02:19:04;;;;;;;0.57;0.57;;;;;;;;;;5051947;28;20294;-76
2021/12/09 02:21:35;;;;;;;0.00;0.00;;;;;;;;;;5050571;28;20291;-74
2021/12/09 02:24:04;;;;;;;0.20;0.10;;;;;;;;;;5049883;28;20200;-75
2021/12/09 02:26:33;;;;;;;0.00;0.00;;;;;;;;;;5051730;28;20205;-76
2021/12/09 02:29:01;;;;;;;0.00;0.00;;;;;;;;;;5050924;28;20207;-75
2021/12/09 02:31:30;;;;;;;0.30;0.30;;;;;;;;;;5047590;28;20308;-76
2021/12/09 02:33:59;;;;;;;0.00;0.00;;;;;;;;;;5049109;28;20208;-75
2021/12/09 02:36:26;;;;;;;0.00;0.00;;;;;;;;;;5051756;28;20969;-75
2021/12/09 02:38:55;;;;;;;0.40;0.40;;;;;;;;;;5051099;28;20640;-76
2021/12/09 02:41:24;;;;;;;1.50;1.40;;;;;;;;;;5048048;28;20212;-75
2021/12/09 02:43:54;;;;;;;0.07;0.07;;;;;;;;;;5049319;28;20231;-76
2021/12/09 02:46:21;;;;;;;0.40;0.40;;;;;;;;;;5050317;28;20207;-76
2021/12/09 02:48:49;;;;;;;0.93;0.30;;;;;;;;;;5049383;28;20234;-75
2021/12/09 02:51:16;;;;;;;0.57;0.47;;;;;;;;;;5051960;28;20247;-77
2021/12/09 02:53:44;;;;;;;1.00;0.93;;;;;;;;;;5052593;28;20211;-78
2021/12/09 02:56:13;;;;;;;2.93;1.17;;;;;;;;;;5045358;28;20206;-76
2021/12/09 02:58:41;;;;;;;1.40;1.30;;;;;;;;;;5049597;28;20207;-75
2021/12/09 03:01:13;;;;;;;0.03;0.03;;;;;;;;;;5049541;28;20294;-76
2021/12/09 03:03:49;;;;;;;0.83;0.50;;;;;;;;;;5051721;28;20739;-77
2021/12/09 03:06:17;;;;;;;0.30;0.30;;;;;;;;;;5047413;28;20204;-76
2021/12/09 03:08:44;;;;;;;0.20;0.10;;;;;;;;;;5045865;28;20224;-77
2021/12/09 03:11:15;;;;;;;0.17;0.17;;;;;;;;;;5039812;28;20211;-76
2021/12/09 03:13:44;;;;;;;0.53;0.53;;;;;;;;;;5046827;28;20200;-76
2021/12/09 03:16:11;;;;;;;0.30;0.30;;;;;;;;;;5051022;28;20788;-76
2021/12/09 03:18:40;;;;;;;0.07;0.07;;;;;;;;;;5048192;28;20207;-75
2021/12/09 03:21:14;;;;;;;0.10;0.10;;;;;;;;;;5048672;28;20191;-75
2021/12/09 03:23:41;;;;;;;0.73;0.63;;;;;;;;;;5049723;28;20296;-73
2021/12/09 03:26:09;;;;;;;0.50;0.50;;;;;;;;;;5048038;28;20290;-75
2021/12/09 03:28:38;;;;;;;1.30;0.47;;;;;;;;;;5048540;28;20696;-77
2021/12/09 03:31:05;;;;;;;0.27;0.27;;;;;;;;;;5047833;28;20213;-76
2021/12/09 03:33:33;;;;;;;0.80;0.60;;;;;;;;;;5039734;28;20282;-75
2021/12/09 03:36:01;;;;;;;0.00;0.00;;;;;;;;;;5051821;28;20653;-76
2021/12/09 03:38:29;;;;;;;2.47;0.77;;;;;;;;;;5052314;28;20207;-75
2021/12/09 03:40:56;;;;;;;0.40;0.40;;;;;;;;;;5051833;28;20199;-76
2021/12/09 03:43:25;;;;;;;0.47;0.40;;;;;;;;;;5046789;28;20204;-75
2021/12/09 03:45:56;;;;;;;0.03;0.03;;;;;;;;;;5044114;28;20286;-76
2021/12/09 03:48:23;;;;;;;0.30;0.30;;;;;;;;;;5047968;28;20576;-74
2021/12/09 03:50:51;;;;;;;1.23;0.70;;;;;;;;;;5050652;28;20209;-75
2021/12/09 03:53:19;;;;;;;0.10;0.10;;;;;;;;;;5048176;28;20208;-74
2021/12/09 03:55:46;;;;;;;0.53;0.53;;;;;;;;;;5047615;28;20223;-76
2021/12/09 03:58:14;;;;;;;2.17;0.93;;;;;;;;;;5046911;28;20204;-75
2021/12/09 04:00:41;;;;;;;0.67;0.40;;;;;;;;;;5050259;28;20297;-76
2021/12/09 04:03:10;;;;;;;0.00;0.00;;;;;;;;;;5047160;28;20203;-78
2021/12/09 04:05:38;;;;;;;0.97;0.30;;;;;;;;;;5048103;28;20203;-76
2021/12/09 04:08:07;;;;;;;4.03;0.93;;;;;;;;;;5049554;28;20222;-76
2021/12/09 04:10:34;;;;;;;0.90;0.90;;;;;;;;;;5047265;28;20199;-75
2021/12/09 04:13:02;;;;;;;0.00;0.00;;;;;;;;;;5046071;28;20199;-76
2021/12/09 04:15:29;;;;;;;1.20;1.07;;;;;;;;;;5043845;28;20213;-75
2021/12/09 04:17:57;;;;;;;3.60;0.80;;;;;;;;;;5037229;28;20200;-75
2021/12/09 04:20:26;;;;;;;2.80;0.47;;;;;;;;;;5049151;28;20218;-77
2021/12/09 04:22:53;;;;;;;0.00;0.00;;;;;;;;;;5049695;28;20567;-77
2021/12/09 04:25:22;;;;;;;0.10;0.10;;;;;;;;;;5049728;28;20207;-77
2021/12/09 04:27:50;;;;;;;1.33;0.57;;;;;;;;;;5050339;28;20227;-78
2021/12/09 04:30:19;;;;;;;0.67;0.67;;;;;;;;;;5045950;28;20207;-77
2021/12/09 04:32:46;;;;;;;0.30;0.30;;;;;;;;;;5041557;28;20210;-76
2021/12/09 04:35:14;;;;;;;1.43;0.87;;;;;;;;;;5046298;28;20204;-75
2021/12/09 04:37:43;;;;;;;0.27;0.27;;;;;;;;;;5045983;28;20195;-76
2021/12/09 04:40:12;;;;;;;0.00;0.00;;;;;;;;;;5045548;28;20224;-77
2021/12/09 04:42:41;;;;;;;3.50;0.53;;;;;;;;;;5047378;28;20210;-77
2021/12/09 04:45:09;;;;;;;0.43;0.43;;;;;;;;;;5042724;28;20206;-74
2021/12/09 04:47:36;;;;;;;0.73;0.73;;;;;;;;;;5042181;28;20215;-77
2021/12/09 04:50:04;;;;;;;0.00;0.00;;;;;;;;;;5047224;28;20196;-78
2021/12/09 04:52:32;;;;;;;0.10;0.10;;;;;;;;;;5041704;28;20203;-78
2021/12/09 04:55:01;;;;;;;0.00;0.00;;;;;;;;;;5042360;28;20250;-79
2021/12/09 04:57:28;;;;;;;0.20;0.20;;;;;;;;;;5050959;28;20207;-79
2021/12/09 04:59:55;;;;;;;0.00;0.00;;;;;;;;;;5050898;28;20200;-78
2021/12/09 05:02:29;;;;;;;0.20;0.20;;;;;;;;;;5049277;28;20238;-79
2021/12/09 05:04:57;;;;;;;0.43;0.43;;;;;;;;;;5049440;28;20199;-76
2021/12/09 05:07:24;;;;;;;2.47;1.43;;;;;;;;;;5045063;28;20199;-79
2021/12/09 05:09:52;;;;;;;0.60;0.60;;;;;;;;;;5046691;28;20210;-78
2021/12/09 05:12:22;;;;;;;0.17;0.17;;;;;;;;;;5045671;28;20206;-78
2021/12/09 05:14:50;;;;;;;8.00;0.63;;;;;;;;;;5046848;28;20214;-78
2021/12/09 05:17:18;;;;;;;0.00;0.00;;;;;;;;;;5042163;28;20211;-78
2021/12/09 05:19:46;;;;;;;0.00;0.00;;;;;;;;;;5043565;28;20212;-79
2021/12/09 05:22:14;;;;;;;0.20;0.20;;;;;;;;;;5044777;28;20207;-75
2021/12/09 05:24:41;;;;;;;0.20;0.20;;;;;;;;;;5039228;28;20278;-78
2021/12/09 05:27:11;;;;;;;0.23;0.03;;;;;;;;;;5045912;28;20266;-77
2021/12/09 05:29:42;;;;;;;0.00;0.00;;;;;;;;;;5043964;28;20258;-78
2021/12/09 05:32:11;;;;;;;6.33;0.93;;;;;;;;;;5049199;28;20208;-77
2021/12/09 05:34:39;;;;;;;0.30;0.30;;;;;;;;;;5046491;28;20198;-77
2021/12/09 05:37:07;;;;;;;0.10;0.10;;;;;;;;;;5044503;28;20227;-78
2021/12/09 05:39:36;;;;;;;0.10;0.10;;;;;;;;;;5044457;28;20235;-79
2021/12/09 05:42:04;;;;;;;0.00;0.00;;;;;;;;;;5045745;28;20284;-78
2021/12/09 05:44:32;;;;;;;0.47;0.47;;;;;;;;;;5042190;28;20195;-78
2021/12/09 05:47:02;;;;;;;1.47;0.67;;;;;;;;;;5044463;28;20290;-77
2021/12/09 05:49:29;;;;;;;0.00;0.00;;;;;;;;;;5040962;28;20220;-76
2021/12/09 05:51:57;;;;;;;5.83;1.10;;;;;;;;;;5046866;28;20223;-78
2021/12/09 05:54:24;;;;;;;1.70;0.53;;;;;;;;;;5045616;28;20227;-79
2021/12/09 05:56:52;;;;;;;0.57;0.43;;;;;;;;;;5046898;28;20204;-78
2021/12/09 05:59:19;;;;;;;0.00;0.00;;;;;;;;;;5049535;28;20200;-76
2021/12/09 06:01:47;;;;;;;3.00;0.70;;;;;;;;;;5044620;28;20204;-76
2021/12/09 06:04:16;;;;;;;0.00;0.00;;;;;;;;;;5045293;28;20211;-76
2021/12/09 06:06:43;;;;;;;1.40;0.43;;;;;;;;;;5047359;28;20212;-78
2021/12/09 06:09:11;;;;;;;0.13;0.13;;;;;;;;;;5049346;28;20246;-78
2021/12/09 06:11:39;;;;;;;0.33;0.33;;;;;;;;;;5050167;28;20212;-77
2021/12/09 06:14:07;;;;;;;0.13;0.13;;;;;;;;;;5047891;28;20214;-76
2021/12/09 06:16:34;;;;;;;0.00;0.00;;;;;;;;;;5046120;28;20210;-76
2021/12/09 06:19:02;;;;;;;0.00;0.00;;;;;;;;;;5050152;28;20211;-79
2021/12/09 06:21:31;;;;;;;0.00;0.00;;;;;;;;;;5050852;28;20833;-76
2021/12/09 06:24:01;;;;;;;1.10;0.43;;;;;;;;;;5049212;28;20209;-76
2021/12/09 06:26:28;;;;;;;0.30;0.30;;;;;;;;;;5049684;28;20200;-76
2021/12/09 06:28:56;;;;;;;0.37;0.37;;;;;;;;;;5046485;28;20881;-76
2021/12/09 06:31:24;;;;;;;0.00;0.00;;;;;;;;;;5048353;28;20319;-76
2021/12/09 06:33:52;;;;;;;0.10;0.10;;;;;;;;;;5049514;28;20203;-75
2021/12/09 06:36:20;;;;;;;0.50;0.50;;;;;;;;;;5047164;28;20188;-76
2021/12/09 06:38:49;;;;;;;0.37;0.37;;;;;;;;;;5049264;28;20778;-75
2021/12/09 06:41:16;;;;;;;1.47;0.67;;;;;;;;;;5054122;28;20329;-77
2021/12/09 06:43:44;;;;;;;0.00;0.00;;;;;;;;;;5049055;28;20203;-75
2021/12/09 06:46:12;;;;;;;0.20;0.17;;;;;;;;;;5046890;28;20207;-77
2021/12/09 06:48:40;;;;;;;1.37;0.57;;;;;;;;;;5047430;28;20231;-75
2021/12/09 06:51:08;;;;;;;0.13;0.10;;;;;;;;;;5048215;28;20207;-76
2021/12/09 06:53:36;;;;;;;0.37;0.37;;;;;;;;;;5052544;28;20219;-77
2021/12/09 06:56:05;;;;;;;1.20;0.30;;;;;;;;;;5054078;28;20903;-76
2021/12/09 06:58:33;;;;;;;0.27;0.20;;;;;;;;;;5048447;28;20199;-76
2021/12/09 07:01:00;;;;;;;0.37;0.37;;;;;;;;;;5046226;28;20680;-77
2021/12/09 07:03:28;;;;;;;0.00;0.00;;;;;;;;;;5039646;28;21484;-79
2021/12/09 07:06:01;;;;;;;0.30;0.30;;;;;;;;;;5053455;28;20314;-78
2021/12/09 07:08:29;;;;;;;0.30;0.30;;;;;;;;;;5051313;28;20270;-76
2021/12/09 07:10:56;;;;;;;0.13;0.10;;;;;;;;;;5049795;28;20203;-77
2021/12/09 07:13:25;;;;;;;2.43;0.87;;;;;;;;;;5051180;28;20195;-78
2021/12/09 07:15:52;;;;;;;0.00;0.00;;;;;;;;;;5047665;28;20706;-79
2021/12/09 07:18:23;;;;;;;1.40;1.00;;;;;;;;;;5052710;28;20561;-79
2021/12/09 07:20:50;;;;;;;0.40;0.40;;;;;;;;;;5051196;28;20281;-78
2021/12/09 07:23:18;;;;;;;0.90;0.90;;;;;;;;;;5052125;28;20207;-77
2021/12/09 07:25:45;;;;;;;0.67;0.50;;;;;;;;;;5049600;28;20207;-77
2021/12/09 07:28:13;;;;;;;0.50;0.47;;;;;;;;;;5044779;28;20204;-79
2021/12/09 07:30:42;;;;;;;0.93;0.70;;;;;;;;;;5052635;28;20208;-74
2021/12/09 07:33:10;;;;;;;1.07;0.30;;;;;;;;;;5049532;28;20550;-79
2021/12/09 07:35:39;;;;;;;1.43;0.73;;;;;;;;;;5049380;28;20212;-74
2021/12/09 07:38:07;;;;;;;0.00;0.00;;;;;;;;;;5047699;28;20208;-74
2021/12/09 07:40:35;;;;;;;1.13;1.10;;;;;;;;;;5040596;28;20202;-74
2021/12/09 07:43:02;;;;;;;1.03;0.97;;;;;;;;;;5051855;28;20606;-77
2021/12/09 07:45:30;;;;;;;0.47;0.47;;;;;;;;;;5050375;28;20208;-76
2021/12/09 07:47:59;;;;;;;3.60;1.07;;;;;;;;;;5059778;28;20655;-76
2021/12/09 07:50:28;;;;;;;4.37;1.50;;;;;;;;;;5049130;28;20238;-78
2021/12/09 07:52:56;;;;;;;0.00;0.00;;;;;;;;;;5042981;28;20195;-78
2021/12/09 07:55:24;;;;;;;0.77;0.70;;;;;;;;;;5046331;28;20600;-78
2021/12/09 07:57:52;;;;;;;3.30;1.70;;;;;;;;;;5054416;28;20756;-78
2021/12/09 08:00:22;;;;;;;1.80;1.70;;;;;;;;;;5047749;28;20199;-77
2021/12/09 08:02:50;;;;;;;2.70;2.50;;;;;;;;;;5049217;28;20215;-76
2021/12/09 08:05:19;;;;;;;2.13;1.73;;;;;;;;;;5048329;28;20200;-79
2021/12/09 08:07:46;;;;;;;0.70;0.70;;;;;;;;;;5050594;28;20207;-75
2021/12/09 08:10:15;;;;;;;2.43;2.33;;;;;;;;;;5046670;28;20223;-73
2021/12/09 08:12:43;;;;;;;0.37;0.37;;;;;;;;;;5051283;28;20241;-75
2021/12/09 08:15:11;;;;;;;6.03;2.07;;;;;;;;;;5059200;28;20708;-74
2021/12/09 08:20:25;;;;;;;0.73;0.73;;;;;;;;;;5041998;28;20211;-75
2021/12/09 08:22:53;;;;;;;2.70;1.27;;;;;;;;;;5046080;28;20404;-75
2021/12/09 08:25:21;;;;;;;6.73;1.50;;;;;;;;;;5051361;28;20695;-75
2021/12/09 08:27:48;;;;;;;1.83;1.67;;;;;;;;;;5046406;28;20196;-77
2021/12/09 08:30:18;;;;;;;2.70;2.50;;;;;;;;;;5048838;28;20219;-76
2021/12/09 08:32:46;;;;;;;1.10;1.00;;;;;;;;;;5050028;28;20203;-73
2021/12/09 08:35:15;;;;;;;0.80;0.63;;;;;;;;;;5061767;28;20224;-75
2021/12/09 08:37:45;;;;;;;0.17;0.17;;;;;;;;;;5052437;28;20298;-76
2021/12/09 08:40:13;;;;;;;1.40;0.70;;;;;;;;;;5052758;28;20672;-77
2021/12/09 08:42:40;;;;;;;2.77;2.00;;;;;;;;;;5056691;28;20242;-76
2021/12/09 08:45:10;;;;;;;1.33;1.27;;;;;;;;;;5059038;28;20655;-77
2021/12/09 08:47:38;;;;;;;2.60;2.00;;;;;;;;;;5049239;28;20286;-76
2021/12/09 08:50:06;;;;;;;1.10;1.10;;;;;;;;;;5043504;28;20231;-77
2021/12/09 08:52:34;;;;;;;0.57;0.50;;;;;;;;;;5051559;28;20207;-75
2021/12/09 08:55:03;;;;;;;0.23;0.23;;;;;;;;;;5052359;28;20241;-76
2021/12/09 08:57:36;;;;;;;2.67;1.70;;;;;;;;;;5058363;28;20210;-74
2021/12/09 09:00:04;;;;;;;0.70;0.67;;;;;;;;;;5058990;28;20596;-77
2021/12/09 09:02:32;;;;;;;2.90;2.60;;;;;;;;;;5050214;28;20548;-73
2021/12/09 09:04:59;;;;;;;1.30;1.23;;;;;;;;;;5043301;28;20218;-76
2021/12/09 09:07:27;;;;;;;0.10;0.10;;;;;;;;;;5042826;28;20200;-78
2021/12/09 09:09:54;;;;;;;1.33;1.23;;;;;;;;;;5046681;28;20230;-76
2021/12/09 09:12:23;;;;;;;0.67;0.63;;;;;;;;;;5044500;28;20199;-73
2021/12/09 09:14:50;;;;;;;1.03;1.03;;;;;;;;;;5048488;28;20217;-75
2021/12/09 09:17:18;;;;;;;1.80;1.23;;;;;;;;;;5047686;28;20202;-75
2021/12/09 09:19:45;;;;;;;1.70;1.13;;;;;;;;;;5048473;28;20199;-74
2021/12/09 09:22:14;;;;;;;0.90;0.90;;;;;;;;;;5043891;28;20199;-75
2021/12/09 09:24:41;;;;;;;0.27;0.27;;;;;;;;;;5048652;28;20204;-74
2021/12/09 09:27:09;;;;;;;1.23;1.23;;;;;;;;;;5046875;28;20195;-72
2021/12/09 09:29:40;;;;;;;5.33;0.90;;;;;;;;;;5046168;28;20223;-73
2021/12/09 09:32:10;;;;;;;1.27;1.23;;;;;;;;;;5047176;28;20688;-72
2021/12/09 09:34:38;;;;;;;0.20;0.20;;;;;;;;;;5046043;28;20207;-73
2021/12/09 09:37:06;;;;;;;1.43;0.90;;;;;;;;;;5039104;28;20205;-75
2021/12/09 09:39:33;;;;;;;1.97;1.87;;;;;;;;;;5043236;28;20214;-76
2021/12/09 09:42:18;;;;;;;6.90;2.03;;;;;;;;;;5045208;28;20265;-78
2021/12/09 09:44:54;;;;;;;0.73;0.70;;;;;;;;;;5044900;28;20203;-74
2021/12/09 09:47:23;;;;;;;0.43;0.40;;;;;;;;;;5044596;28;20256;-74
2021/12/09 09:49:50;;;;;;;1.07;1.00;;;;;;;;;;5049945;28;20249;-72
2021/12/09 09:52:18;;;;;;;2.63;2.43;;;;;;;;;;5050096;28;20208;-76
2021/12/09 09:54:46;;;;;;;4.40;1.30;;;;;;;;;;5052325;28;20230;-76
2021/12/09 09:57:14;;;;;;;3.00;2.27;;;;;;;;;;5046756;28;20207;-75
2021/12/09 09:59:42;;;;;;;0.53;0.50;;;;;;;;;;5048247;28;20700;-73
2021/12/09 10:02:12;;;;;;;4.53;2.33;;;;;;;;;;5051492;28;20196;-74
2021/12/09 10:04:45;;;;;;;2.50;2.30;;;;;;;;;;5051386;28;20203;-73
2021/12/09 10:07:13;;;;;;;5.57;2.80;;;;;;;;;;5051160;28;20211;-75
2021/12/09 10:09:41;;;;;;;2.70;2.50;;;;;;;;;;5049904;28;20227;-71
2021/12/09 10:12:09;;;;;;;3.03;2.83;;;;;;;;;;5050854;28;20712;-83
2021/12/09 10:14:38;;;;;;;0.47;0.47;;;;;;;;;;5053564;28;20204;-77
2021/12/09 10:17:07;;;;;;;4.00;2.83;;;;;;;;;;5052300;28;20204;-81
2021/12/09 10:19:36;;;;;;;2.20;1.83;;;;;;;;;;5049833;28;20204;-76
2021/12/09 10:22:09;;;;;;;2.33;1.90;;;;;;;;;;5050403;28;20200;-75
2021/12/09 10:24:37;;;;;;;1.47;1.37;;;;;;;;;;5054449;28;20226;-78
2021/12/09 10:27:06;;;;;;;3.97;3.10;;;;;;;;;;5046963;28;20291;-77
2021/12/09 10:29:37;;;;;;;2.00;1.60;;;;;;;;;;5051657;28;20235;-77
2021/12/09 10:32:06;;;;;;;3.40;3.10;;;;;;;;;;5050940;28;20228;-76
2021/12/09 10:34:39;;;;;;;0.87;0.87;;;;;;;;;;5047020;28;20235;-77
2021/12/09 10:37:07;;;;;;;13.17;2.40;;;;;;;;;;5051940;28;20211;-76
2021/12/09 10:39:37;;;;;;;2.70;2.50;;;;;;;;;;5049253;28;20200;-75
2021/12/09 10:42:06;;;;;;;2.73;1.00;;;;;;;;;;5046966;28;20382;-71
2021/12/09 10:44:41;;;;;;;1.50;1.40;;;;;;;;;;5051071;28;20211;-76
2021/12/09 10:47:13;;;;;;;4.23;2.27;;;;;;;;;;5051032;28;20568;-75
2021/12/09 10:49:50;;;;;;;1.50;0.97;;;;;;;;;;5049936;28;20224;-72
2021/12/09 10:52:40;;;;;;;1.57;1.47;;;;;;;;;;5049239;28;20600;-77
2021/12/09 10:55:13;;;;;;;1.83;1.73;;;;;;;;;;5046108;28;20290;-75
2021/12/09 10:57:40;;;;;;;0.73;0.60;;;;;;;;;;5050503;28;20202;-74
2021/12/09 11:00:35;;;;;;;0.77;0.70;;;;;;;;;;5050911;28;20207;-77
2021/12/09 11:03:10;;;;;;;0.47;0.47;;;;;;;;;;5025237;28;20200;-72
2021/12/09 11:05:41;;;;;;;1.07;0.87;;;;;;;;;;5050195;28;20203;-75
2021/12/09 11:08:26;;;;;;;1.90;0.83;;;;;;;;;;5045652;28;20206;-76
2021/12/09 11:10:58;;;;;;;0.10;0.10;;;;;;;;;;5053320;28;20239;-71
2021/12/09 11:13:26;;;;;;;0.10;0.10;;;;;;;;;;5049806;28;20200;-74
2021/12/09 11:15:55;;;;;;;2.10;1.43;;;;;;;;;;5045618;28;20210;-75
2021/12/09 11:18:30;;;;;;;1.40;1.30;;;;;;;;;;5049164;28;20205;-77
2021/12/09 11:21:00;;;;;;;1.33;1.00;;;;;;;;;;5046603;28;20674;-71
2021/12/09 11:23:29;;;;;;;2.17;1.50;;;;;;;;;;5049867;28;20693;-70
2021/12/09 11:26:00;;;;;;;2.77;2.30;;;;;;;;;;5049879;28;20249;-70
2021/12/09 11:28:28;;;;;;;1.10;1.00;;;;;;;;;;5053048;28;20235;-72
2021/12/09 11:31:12;;;;;;;1.37;1.07;;;;;;;;;;5051245;28;20259;-71
2021/12/09 11:33:43;;;;;;;0.67;0.43;;;;;;;;;;5049427;28;20668;-83
2021/12/09 11:36:17;;;;;;;2.27;1.87;;;;;;;;;;5051325;28;20247;-74
2021/12/09 11:39:06;;;;;;;0.97;0.83;;;;;;;;;;5049187;28;20207;-72
2021/12/09 11:41:36;;;;;;;1.80;1.40;;;;;;;;;;5050101;28;20687;-78
2021/12/09 11:44:04;;;;;;;1.73;1.57;;;;;;;;;;5049970;28;20306;-80
2021/12/09 11:46:32;;;;;;;1.90;1.70;;;;;;;;;;5052002;28;20218;-79
2021/12/09 11:49:00;;;;;;;1.30;1.20;;;;;;;;;;5053441;28;20203;-76
2021/12/09 11:51:28;;;;;;;1.43;1.33;;;;;;;;;;5050736;28;20234;-76
2021/12/09 11:53:58;;;;;;;2.00;0.97;;;;;;;;;;5048884;28;20234;-81
2021/12/09 11:56:33;;;;;;;2.20;1.90;;;;;;;;;;5046663;28;20635;-74
2021/12/09 12:07:55;;;;;;;4.00;2.97;;;;;;;;;;5036382;28;20207;-76
2021/12/09 12:13:29;;;;;;;0.60;0.60;;;;;;;;;;5047784;28;20736;-71
2021/12/09 12:15:59;;;;;;;2.30;2.00;;;;;;;;;;5046879;28;20214;-75
2021/12/09 12:18:49;;;;;;;1.13;1.03;;;;;;;;;;5045899;28;20713;-70
2021/12/09 12:21:46;;;;;;;2.43;1.40;;;;;;;;;;5046348;28;20244;-74
2021/12/09 12:24:40;;;;;;;1.10;0.37;;;;;;;;;;5046328;28;20207;-77
2021/12/09 12:27:28;;;;;;;0.60;0.60;;;;;;;;;;5048334;28;20639;-74
2021/12/09 12:30:14;;;;;;;0.83;0.83;;;;;;;;;;5045705;28;20243;-76
2021/12/09 12:38:48;;;;;;;0.10;0.10;;;;;;;;;;4989474;28;20201;-74
2021/12/09 12:41:20;;;;;;;0.23;0.23;;;;;;;;;;4993757;28;20212;-74
2021/12/09 12:43:55;;;;;;;0.53;0.53;;;;;;;;;;5005135;28;20205;-76
2021/12/09 12:46:42;;;;;;;0.00;0.00;;;;;;;;;;5002238;28;20295;-72
2021/12/09 12:49:18;;;;;;;0.13;0.13;;;;;;;;;;5004499;28;20208;-73
2021/12/09 12:51:53;;;;;;;1.77;1.13;;;;;;;;;;5000884;28;20228;-72
2021/12/09 12:54:27;;;;;;;1.70;1.60;;;;;;;;;;5006323;28;20224;-71
2021/12/09 12:56:57;;;;;;;0.10;0.10;;;;;;;;;;5000961;28;20292;-73
2021/12/09 12:59:32;;;;;;;0.53;0.53;;;;;;;;;;5002490;28;20689;-72
2021/12/09 13:02:39;;;;;;;0.00;0.00;;;;;;;;;;5003813;28;20412;-72
2021/12/09 13:05:19;;;;;;;0.20;0.20;;;;;;;;;;5003573;28;20205;-72
2021/12/09 13:08:04;;;;;;;0.10;0.10;;;;;;;;;;4997862;28;20211;-73
2021/12/09 13:10:45;;;;;;;0.00;0.00;;;;;;;;;;5043910;28;20227;-75
2021/12/09 13:13:20;;;;;;;0.60;0.60;;;;;;;;;;5048256;28;20203;-72
2021/12/09 13:16:06;;;;;;;0.00;0.00;;;;;;;;;;5046615;28;20702;-74
2021/12/09 13:19:12;;;;;;;0.00;0.00;;;;;;;;;;5048493;28;20733;-73
2021/12/09 13:21:44;;;;;;;0.00;0.00;;;;;;;;;;5024531;28;20559;-73
2021/12/09 13:24:34;;;;;;;2.80;0.50;;;;;;;;;;5048250;28;20208;-74
2021/12/09 13:27:25;;;;;;;0.30;0.23;;;;;;;;;;5049260;28;20210;-72
2021/12/09 13:30:27;;;;;;;0.00;0.00;;;;;;;;;;5052084;28;20199;-72
2021/12/09 13:33:06;;;;;;;0.00;0.00;;;;;;;;;;5048734;28;20619;-74
2021/12/09 13:35:47;;;;;;;0.00;0.00;;;;;;;;;;5052440;28;21006;-76
2021/12/09 13:47:00;;;;;;;0.00;0.00;;;;;;;;;;5040650;28;20261;-73
2021/12/09 13:49:43;;;;;;;0.20;0.20;;;;;;;;;;5100647;28;20705;-74
2021/12/09 13:54:54;;;;;;;0.00;0.00;;;;;;;;;;5097401;28;20194;-71
2021/12/09 13:57:31;;;;;;;0.50;0.50;;;;;;;;;;5097126;28;20675;-73
2021/12/09 13:59:59;;;;;;;0.00;0.00;;;;;;;;;;5098483;28;20741;-69
2021/12/09 14:02:27;;;;;;;0.10;0.10;;;;;;;;;;5096894;28;20213;-72
2021/12/09 14:04:55;;;;;;;0.00;0.00;;;;;;;;;;5094499;28;20724;-73
2021/12/09 14:07:28;;;;;;;0.10;0.10;;;;;;;;;;5088965;28;20300;-71
2021/12/09 14:09:59;;;;;;;0.00;0.00;;;;;;;;;;5096871;28;20197;-75
2021/12/09 14:12:30;;;;;;;0.00;0.00;;;;;;;;;;5097941;28;20205;-74
2021/12/09 14:15:07;;;;;;;0.00;0.00;;;;;;;;;;5099821;28;20205;-71
2021/12/09 14:17:37;;;;;;;0.67;0.67;;;;;;;;;;5100195;28;20200;-72
2021/12/09 14:20:06;;;;;;;0.00;0.00;;;;;;;;;;5100858;28;20358;-72
2021/12/09 14:22:35;;;;;;;0.07;0.07;;;;;;;;;;5099283;28;20251;-73
2021/12/09 14:25:06;;;;;;;0.60;0.60;;;;;;;;;;5099159;28;20212;-72
2021/12/09 14:27:33;;;;;;;0.00;0.00;;;;;;;;;;5093943;28;20672;-71
2021/12/09 14:30:02;;;;;;;0.10;0.10;;;;;;;;;;5100392;28;20675;-71
2021/12/09 14:32:31;;;;;;;0.00;0.00;;;;;;;;;;5101659;28;20675;-71
2021/12/09 14:35:00;;;;;;;3.90;0.33;;;;;;;;;;5100905;28;20202;-71
2021/12/09 14:37:28;;;;;;;0.00;0.00;;;;;;;;;;5101276;28;20249;-71
2021/12/09 14:40:06;;;;;;;0.00;0.00;;;;;;;;;;5104039;28;21013;-71
2021/12/09 14:42:36;;;;;;;1.33;1.23;;;;;;;;;;5104671;28;20201;-71
2021/12/09 14:45:09;;;;;;;0.10;0.10;;;;;;;;;;5096768;28;20682;-72
2021/12/09 14:47:37;;;;;;;0.93;0.77;;;;;;;;;;5096885;28;20286;-72
2021/12/09 14:50:06;;;;;;;1.63;0.53;;;;;;;;;;5103806;28;20662;-72
2021/12/09 14:52:36;;;;;;;0.50;0.50;;;;;;;;;;5090306;28;20202;-71
2021/12/09 14:55:16;;;;;;;0.33;0.30;;;;;;;;;;5086993;28;20202;-69
2021/12/09 14:58:04;;;;;;;0.60;0.60;;;;;;;;;;5086914;28;20205;-70
2021/12/09 15:00:38;;;;;;;1.33;0.83;;;;;;;;;;5086928;28;20222;-72
2021/12/09 15:03:07;;;;;;;3.93;1.47;;;;;;;;;;5084886;28;20202;-76
2021/12/09 15:05:46;;;;;;;0.47;0.40;;;;;;;;;;5084239;28;20644;-79
2021/12/09 15:08:20;;;;;;;0.00;0.00;;;;;;;;;;5088002;28;20267;-73
2021/12/09 15:10:50;;;;;;;0.27;0.27;;;;;;;;;;5084755;28;20198;-74
2021/12/09 15:13:17;;;;;;;1.30;0.10;;;;;;;;;;5081762;28;20277;-71
2021/12/09 15:15:46;;;;;;;0.23;0.23;;;;;;;;;;5080056;28;20195;-75
2021/12/09 15:18:14;;;;;;;0.63;0.63;;;;;;;;;;5088068;28;20210;-72
2021/12/09 15:20:47;;;;;;;0.40;0.40;;;;;;;;;;5099347;28;20221;-73
2021/12/09 15:23:30;;;;;;;0.00;0.00;;;;;;;;;;5086049;28;20211;-70
2021/12/09 15:25:58;;;;;;;0.73;0.17;;;;;;;;;;5087032;28;20297;-73
2021/12/09 15:28:26;;;;;;;0.00;0.00;;;;;;;;;;5090544;28;20213;-71
2021/12/09 15:30:56;;;;;;;0.30;0.10;;;;;;;;;;5089308;28;20603;-71
2021/12/09 15:33:27;;;;;;;0.47;0.47;;;;;;;;;;5090100;28;20204;-69